createdAt,value
2022-09-06T00:00:11.908Z,4.35
2022-09-06T00:02:39.270Z,4.90
2022-09-06T00:05:07.592Z,4.90
2022-09-06T00:07:35.039Z,4.40
2022-09-06T00:10:01.964Z,4.68
2022-09-06T00:12:28.840Z,4.93
2022-09-06T00:14:55.718Z,4.97
2022-09-06T00:17:22.511Z,4.72
2022-09-06T00:19:49.285Z,4.47
2022-09-06T00:22:16.150Z,4.85
2022-09-06T00:24:42.871Z,5.32
2022-09-06T00:27:09.905Z,4.60
2022-09-06T00:29:36.636Z,5.05
2022-09-06T00:32:03.422Z,4.78
2022-09-06T00:34:30.365Z,4.70
2022-09-06T00:36:57.139Z,4.85
2022-09-06T00:39:24.016Z,5.18
2022-09-06T00:41:50.818Z,5.13
2022-09-06T00:44:17.563Z,5.47
2022-09-06T00:46:47.092Z,4.60
2022-09-06T00:49:31.910Z,4.57
2022-09-06T00:52:05.479Z,4.57
2022-09-06T00:56:59.922Z,4.57
2022-09-06T00:59:29.164Z,5.00
2022-09-06T01:01:56.065Z,4.70
2022-09-06T01:04:23.905Z,4.88
2022-09-06T01:07:11.684Z,4.88
2022-09-06T01:09:53.621Z,4.68
2022-09-06T01:13:01.751Z,4.65
2022-09-06T01:15:45.466Z,5.55
2022-09-06T01:18:30.888Z,5.45
2022-09-06T01:21:15.905Z,5.10
2022-09-06T01:24:00.994Z,5.60
2022-09-06T01:26:27.696Z,5.38
2022-09-06T01:28:55.213Z,5.68
2022-09-06T01:31:39.160Z,5.35
2022-09-06T01:37:10.841Z,6.00
2022-09-06T01:39:39.669Z,6.15
2022-09-06T01:42:14.947Z,5.88
2022-09-06T01:44:46.410Z,6.72
2022-09-06T01:47:19.310Z,5.65
2022-09-06T01:50:00.924Z,6.10
2022-09-06T01:52:39.853Z,6.05
2022-09-06T01:55:29.466Z,6.47
2022-09-06T01:58:26.913Z,6.28
2022-09-06T02:01:17.710Z,6.60
2022-09-06T02:03:56.916Z,6.53
2022-09-06T02:06:41.161Z,7.05
2022-09-06T02:09:12.298Z,7.20
2022-09-06T02:12:00.724Z,7.00
2022-09-06T02:14:36.898Z,6.53
2022-09-06T02:17:05.940Z,6.65
2022-09-06T02:19:53.900Z,6.28
2022-09-06T02:22:23.349Z,6.55
2022-09-06T02:24:53.870Z,6.18
2022-09-06T02:27:20.756Z,6.40
2022-09-06T02:29:47.546Z,6.45
2022-09-06T02:32:22.016Z,6.13
2022-09-06T02:34:53.604Z,6.30
2022-09-06T02:37:21.070Z,6.32
2022-09-06T02:39:47.794Z,5.70
2022-09-06T02:42:17.635Z,6.28
2022-09-06T02:44:44.552Z,5.85
2022-09-06T02:47:11.326Z,5.35
2022-09-06T02:49:38.022Z,6.20
2022-09-06T02:52:04.932Z,5.22
2022-09-06T02:54:31.625Z,5.85
2022-09-06T02:56:58.438Z,6.32
2022-09-06T02:59:25.249Z,5.65
2022-09-06T03:01:51.945Z,5.57
2022-09-06T03:04:18.647Z,5.30
2022-09-06T03:06:45.830Z,5.15
2022-09-06T03:09:12.517Z,5.07
2022-09-06T03:11:39.191Z,5.45
2022-09-06T03:14:09.004Z,5.20
2022-09-06T03:16:37.097Z,5.22
2022-09-06T03:19:04.213Z,5.30
2022-09-06T03:21:30.921Z,4.88
2022-09-06T03:23:59.417Z,5.05
2022-09-06T03:26:26.412Z,4.70
2022-09-06T03:28:53.093Z,4.60
2022-09-06T03:31:19.919Z,5.13
2022-09-06T03:33:46.760Z,4.78
2022-09-06T03:36:13.963Z,5.10
2022-09-06T03:38:40.631Z,4.70
2022-09-06T03:41:07.466Z,5.20
2022-09-06T03:43:34.224Z,5.50
2022-09-06T03:46:04.137Z,5.28
2022-09-06T03:48:30.973Z,5.28
2022-09-06T03:50:58.921Z,5.30
2022-09-06T03:53:27.911Z,4.97
2022-09-06T03:55:56.266Z,5.00
2022-09-06T03:58:24.130Z,5.07
2022-09-06T04:01:04.638Z,4.57
2022-09-06T04:03:31.541Z,5.00
2022-09-06T04:05:58.326Z,5.00
2022-09-06T04:08:25.123Z,5.35
2022-09-06T04:10:56.390Z,4.63
2022-09-06T04:13:24.705Z,4.97
2022-09-06T04:15:52.508Z,4.47
2022-09-06T04:18:20.635Z,4.70
2022-09-06T04:20:56.015Z,4.38
2022-09-06T04:23:24.927Z,5.05
2022-09-06T04:25:54.384Z,5.05
2022-09-06T04:28:22.395Z,4.78
2022-09-06T04:30:53.421Z,4.28
2022-09-06T04:33:20.705Z,4.57
2022-09-06T04:35:50.697Z,4.70
2022-09-06T04:38:17.439Z,5.03
2022-09-06T04:40:44.251Z,4.47
2022-09-06T04:43:10.997Z,4.57
2022-09-06T04:45:38.153Z,4.38
2022-09-06T04:48:05.120Z,4.95
2022-09-06T04:50:31.885Z,5.00
2022-09-06T04:52:58.541Z,4.72
2022-09-06T04:55:26.560Z,4.97
2022-09-06T04:57:54.386Z,4.80
2022-09-06T05:00:21.220Z,4.13
2022-09-06T05:02:48.684Z,4.45
2022-09-06T05:05:18.237Z,4.30
2022-09-06T05:07:44.963Z,5.00
2022-09-06T05:10:11.729Z,4.38
2022-09-06T05:12:42.171Z,4.55
2022-09-06T05:15:11.229Z,4.57
2022-09-06T05:17:38.065Z,4.50
2022-09-06T05:20:05.176Z,4.28
2022-09-06T05:22:31.864Z,4.38
2022-09-06T05:24:58.610Z,4.50
2022-09-06T05:27:25.547Z,4.30
2022-09-06T05:29:52.219Z,4.35
2022-09-06T05:32:18.978Z,4.00
2022-09-06T05:34:45.699Z,3.90
2022-09-06T05:37:12.552Z,4.43
2022-09-06T05:39:39.381Z,4.53
2022-09-06T05:42:06.911Z,3.95
2022-09-06T05:44:37.492Z,3.97
2022-09-06T05:47:04.879Z,4.00
2022-09-06T05:49:32.439Z,3.50
2022-09-06T05:52:02.119Z,3.60
2022-09-06T05:54:28.894Z,3.40
2022-09-06T05:56:55.572Z,3.28
2022-09-06T05:59:22.364Z,3.08
2022-09-06T06:01:51.367Z,2.78
2022-09-06T06:04:19.292Z,3.35
2022-09-06T06:06:46.984Z,2.70
2022-09-06T06:09:14.310Z,2.70
2022-09-06T06:11:42.165Z,2.72
2022-09-06T06:14:09.754Z,3.10
2022-09-06T06:16:36.627Z,3.17
2022-09-06T06:19:03.782Z,3.10
2022-09-06T06:21:32.420Z,2.97
2022-09-06T06:24:04.247Z,3.20
2022-09-06T06:26:33.426Z,3.80
2022-09-06T06:29:02.203Z,4.32
2022-09-06T06:31:30.718Z,3.60
2022-09-06T06:33:58.454Z,3.13
2022-09-06T06:36:27.176Z,3.78
2022-09-06T06:38:55.421Z,3.22
2022-09-06T06:41:24.850Z,3.60
2022-09-06T06:43:56.042Z,3.13
2022-09-06T06:46:25.015Z,3.35
2022-09-06T06:48:54.847Z,3.00
2022-09-06T06:51:25.108Z,2.92
2022-09-06T06:53:52.740Z,3.20
2022-09-06T06:56:25.635Z,2.88
2022-09-06T06:58:55.059Z,3.00
2022-09-06T07:01:22.738Z,6.03
2022-09-06T07:03:50.286Z,4.47
2022-09-06T07:06:18.474Z,3.20
2022-09-06T07:08:45.693Z,3.30
2022-09-06T07:11:14.804Z,2.92
2022-09-06T07:13:41.637Z,3.45
2022-09-06T07:16:13.434Z,3.10
2022-09-06T07:18:42.418Z,3.00
2022-09-06T07:24:09.019Z,2.40
2022-09-06T07:26:38.911Z,2.17
2022-09-06T07:29:07.145Z,2.10
2022-09-06T07:34:22.225Z,1.98
2022-09-06T07:36:52.783Z,2.00
2022-09-06T07:39:19.527Z,2.20
2022-09-06T07:41:46.245Z,2.60
2022-09-06T07:44:13.035Z,2.22
2022-09-06T07:46:39.914Z,2.53
2022-09-06T07:49:07.562Z,2.70
2022-09-06T07:51:34.335Z,2.30
2022-09-06T07:56:47.999Z,2.17
2022-09-06T07:59:14.867Z,2.30
2022-09-06T08:01:42.315Z,2.00
2022-09-06T08:04:14.180Z,2.10
2022-09-06T08:09:31.026Z,1.83
2022-09-06T08:11:57.859Z,1.77
2022-09-06T08:14:24.847Z,1.98
2022-09-06T08:16:51.581Z,1.83
2022-09-06T08:19:21.393Z,1.92
2022-09-06T08:21:48.284Z,1.73
2022-09-06T08:24:15.102Z,2.00
2022-09-06T08:26:43.225Z,2.38
2022-09-06T08:29:11.001Z,1.55
2022-09-06T08:31:40.293Z,1.50
2022-09-06T08:34:07.358Z,1.55
2022-09-06T08:36:34.901Z,1.60
2022-09-06T08:39:06.098Z,1.40
2022-09-06T08:41:48.148Z,1.60
2022-09-06T08:47:14.091Z,1.80
2022-09-06T08:49:43.066Z,1.65
2022-09-06T08:52:44.939Z,1.70
2022-09-06T08:55:34.121Z,1.40
2022-09-06T08:58:29.262Z,1.50
2022-09-06T09:01:19.293Z,1.50
2022-09-06T09:03:47.224Z,1.65
2022-09-06T09:06:13.985Z,1.58
2022-09-06T09:09:08.155Z,1.50
2022-09-06T09:11:36.376Z,1.50
2022-09-06T09:14:08.938Z,1.60
2022-09-06T09:16:36.017Z,1.40
2022-09-06T09:19:05.260Z,1.50
2022-09-06T09:21:38.132Z,1.40
2022-09-06T09:24:10.864Z,1.48
2022-09-06T09:26:59.178Z,1.30
2022-09-06T09:29:29.494Z,1.50
2022-09-06T09:32:01.306Z,1.50
2022-09-06T09:34:33.452Z,1.60
2022-09-06T09:40:17.818Z,1.60
2022-09-06T09:42:44.681Z,1.40
2022-09-06T09:45:31.263Z,1.30
2022-09-06T09:48:17.475Z,1.50
2022-09-06T09:50:44.275Z,1.60
2022-09-06T09:53:16.520Z,1.60
2022-09-06T09:55:44.291Z,1.63
2022-09-06T09:58:32.934Z,1.50
2022-09-06T10:01:20.784Z,1.50
2022-09-06T10:09:30.836Z,1.60
2022-09-06T10:11:59.254Z,1.50
2022-09-06T10:14:33.522Z,1.50
2022-09-06T10:17:00.900Z,1.75
2022-09-06T10:19:41.558Z,1.77
2022-09-06T10:22:20.396Z,1.70
2022-09-06T10:25:28.756Z,1.60
2022-09-06T10:28:13.548Z,1.40
2022-09-06T10:31:06.627Z,1.60
2022-09-06T10:34:02.287Z,1.57
2022-09-06T10:36:37.926Z,1.63
2022-09-06T10:39:11.763Z,1.60
2022-09-06T10:41:52.568Z,1.75
2022-09-06T10:44:37.974Z,1.55
2022-09-06T10:47:14.232Z,1.80
2022-09-06T10:49:45.634Z,2.00
2022-09-06T10:52:17.515Z,2.00
2022-09-06T10:54:47.453Z,1.35
2022-09-06T11:00:13.865Z,2.13
2022-09-06T11:05:53.932Z,1.90
2022-09-06T11:11:26.266Z,2.50
2022-09-06T11:13:52.963Z,2.40
2022-09-06T11:16:30.761Z,2.10
2022-09-06T11:19:10.461Z,1.92
2022-09-06T11:22:04.019Z,2.00
2022-09-06T11:24:45.853Z,2.05
2022-09-06T11:27:21.817Z,2.00
2022-09-06T11:29:56.471Z,2.00
2022-09-06T11:32:44.971Z,2.05
2022-09-06T11:35:33.037Z,2.15
2022-09-06T11:38:17.018Z,2.50
2022-09-06T11:40:47.147Z,2.20
2022-09-06T11:43:32.257Z,2.40
2022-09-06T11:45:58.992Z,2.40
2022-09-06T11:48:26.739Z,2.15
2022-09-06T11:50:53.504Z,2.47
2022-09-06T11:53:22.639Z,2.33
2022-09-06T11:56:14.334Z,2.00
2022-09-06T11:58:53.434Z,2.97
2022-09-06T12:01:20.923Z,2.67
2022-09-06T12:06:31.894Z,2.63
2022-09-06T12:08:59.515Z,2.33
2022-09-06T12:11:30.314Z,2.53
2022-09-06T12:13:59.680Z,2.53
2022-09-06T12:16:58.255Z,2.83
2022-09-06T12:19:46.923Z,2.22
2022-09-06T12:22:37.759Z,2.38
2022-09-06T12:25:34.593Z,2.70
2022-09-06T12:28:20.154Z,2.88
2022-09-06T12:30:48.796Z,2.20
2022-09-06T12:33:19.863Z,2.40
2022-09-06T12:36:04.519Z,2.03
2022-09-06T12:38:33.567Z,2.40
2022-09-06T12:41:01.290Z,2.72
2022-09-06T12:43:28.411Z,2.47
2022-09-06T12:45:55.177Z,3.00
2022-09-06T12:48:41.509Z,2.30
2022-09-06T12:51:19.537Z,2.42
2022-09-06T12:53:58.997Z,1.90
2022-09-06T12:56:27.724Z,2.88
2022-09-06T12:59:14.425Z,2.40
2022-09-06T13:01:51.155Z,2.80
2022-09-06T13:04:52.139Z,2.30
2022-09-06T13:07:22.462Z,3.28
2022-09-06T13:09:52.122Z,2.42
2022-09-06T13:12:50.696Z,2.80
2022-09-06T13:15:36.808Z,2.15
2022-09-06T13:18:31.266Z,2.17
2022-09-06T13:21:14.242Z,2.30
2022-09-06T13:23:47.873Z,2.42
2022-09-06T13:26:15.416Z,2.63
2022-09-06T13:28:42.145Z,2.63
2022-09-06T13:31:09.004Z,2.55
2022-09-06T13:33:37.777Z,2.13
2022-09-06T13:36:09.143Z,2.50
2022-09-06T13:38:38.887Z,2.42
2022-09-06T13:41:12.771Z,2.72
2022-09-06T13:43:46.053Z,2.45
2022-09-06T13:46:13.137Z,2.20
2022-09-06T13:48:40.179Z,2.20
2022-09-06T13:51:09.801Z,2.25
2022-09-06T13:53:36.571Z,1.98
2022-09-06T13:56:03.663Z,2.10
2022-09-06T13:58:30.627Z,2.40
2022-09-06T14:00:58.746Z,2.47
2022-09-06T14:03:29.615Z,3.17
2022-09-06T14:05:56.792Z,2.40
2022-09-06T14:08:24.365Z,2.15
2022-09-06T14:10:51.926Z,2.53
2022-09-06T14:13:19.311Z,2.53
2022-09-06T14:15:47.832Z,2.38
2022-09-06T14:18:15.483Z,2.42
2022-09-06T14:20:42.981Z,2.70
2022-09-06T14:23:09.732Z,2.55
2022-09-06T14:25:37.664Z,2.80
2022-09-06T14:28:04.850Z,2.75
2022-09-06T14:30:31.959Z,3.00
2022-09-06T14:32:59.040Z,2.47
2022-09-06T14:35:26.017Z,2.58
2022-09-06T14:37:52.719Z,2.58
2022-09-06T14:40:19.509Z,2.20
2022-09-06T14:42:50.298Z,2.83
2022-09-06T14:45:17.579Z,2.60
2022-09-06T14:47:44.467Z,2.75
2022-09-06T14:50:11.511Z,2.72
2022-09-06T14:52:38.232Z,2.90
2022-09-06T14:55:05.456Z,2.42
2022-09-06T14:57:32.227Z,2.70
2022-09-06T14:59:59.282Z,2.95
2022-09-06T15:02:28.941Z,2.90
2022-09-06T15:04:55.861Z,2.38
2022-09-06T15:07:22.801Z,3.55
2022-09-06T15:09:51.114Z,2.45
2022-09-06T15:12:18.193Z,2.42
2022-09-06T15:14:45.122Z,2.30
2022-09-06T15:17:11.871Z,2.60
2022-09-06T15:19:39.407Z,2.72
2022-09-06T15:22:07.366Z,2.67
2022-09-06T15:24:34.848Z,2.50
2022-09-06T15:27:01.588Z,2.78
2022-09-06T15:29:28.585Z,2.70
2022-09-06T15:31:55.797Z,2.30
2022-09-06T15:34:25.182Z,2.80
2022-09-06T15:36:53.357Z,2.65
2022-09-06T15:39:20.326Z,2.53
2022-09-06T15:41:47.239Z,2.72
2022-09-06T15:44:16.151Z,2.95
2022-09-06T15:46:54.249Z,2.80
2022-09-06T15:49:28.589Z,2.65
2022-09-06T15:51:58.413Z,2.72
2022-09-06T15:54:44.498Z,2.90
2022-09-06T15:57:11.602Z,2.92
2022-09-06T15:59:39.862Z,2.53
2022-09-06T16:02:07.043Z,3.05
2022-09-06T16:04:33.962Z,2.95
2022-09-06T16:07:00.719Z,2.88
2022-09-06T16:09:27.453Z,3.38
2022-09-06T16:11:54.588Z,2.83
2022-09-06T16:14:21.661Z,3.08
2022-09-06T16:16:48.435Z,3.28
2022-09-06T16:19:15.328Z,2.95
2022-09-06T16:21:43.101Z,2.90
2022-09-06T16:24:12.242Z,2.90
2022-09-06T16:26:44.535Z,3.22
2022-09-06T16:29:13.344Z,3.10
2022-09-06T16:31:40.986Z,2.90
2022-09-06T16:34:12.201Z,2.75
2022-09-06T16:36:39.898Z,3.15
2022-09-06T16:39:07.929Z,3.00
2022-09-06T16:41:40.859Z,2.75
2022-09-06T16:44:09.662Z,3.15
2022-09-06T16:46:36.729Z,2.97
2022-09-06T16:49:04.694Z,2.70
2022-09-06T16:51:32.032Z,2.92
2022-09-06T16:53:59.745Z,2.67
2022-09-06T16:56:29.417Z,2.80
2022-09-06T16:58:58.704Z,2.35
2022-09-06T17:01:27.525Z,2.65
2022-09-06T17:03:54.797Z,3.10
2022-09-06T17:06:23.119Z,2.83
2022-09-06T17:08:51.012Z,2.42
2022-09-06T17:11:20.972Z,2.92
2022-09-06T17:13:50.276Z,2.60
2022-09-06T17:16:36.987Z,3.40
2022-09-06T17:19:04.842Z,3.30
2022-09-06T17:21:32.057Z,2.83
2022-09-06T17:24:03.197Z,2.88
2022-09-06T17:26:31.115Z,3.05
2022-09-06T17:28:57.965Z,2.80
2022-09-06T17:31:26.128Z,2.88
2022-09-06T17:33:53.743Z,3.45
2022-09-06T17:36:26.345Z,2.42
2022-09-06T17:38:59.178Z,3.25
2022-09-06T17:41:28.539Z,3.25
2022-09-06T17:43:55.568Z,3.35
2022-09-06T17:46:28.408Z,3.95
2022-09-06T17:48:56.901Z,3.10
2022-09-06T17:51:24.950Z,2.78
2022-09-06T17:53:52.475Z,3.00
2022-09-06T17:56:20.493Z,2.95
2022-09-06T17:58:55.937Z,2.95
2022-09-06T18:01:24.488Z,3.30
2022-09-06T18:03:51.855Z,2.45
2022-09-06T18:06:22.755Z,2.80
2022-09-06T18:08:51.736Z,3.22
2022-09-06T18:11:22.462Z,2.95
2022-09-06T18:14:06.676Z,3.22
2022-09-06T18:16:34.993Z,3.22
2022-09-06T18:19:04.708Z,3.00
2022-09-06T18:21:33.770Z,3.28
2022-09-06T18:24:00.506Z,3.08
2022-09-06T18:26:27.299Z,3.63
2022-09-06T18:28:54.883Z,3.30
2022-09-06T18:31:23.889Z,3.25
2022-09-06T18:33:51.190Z,3.08
2022-09-06T18:36:19.644Z,3.35
2022-09-06T18:38:46.417Z,3.42
2022-09-06T18:41:34.682Z,3.42
2022-09-06T18:44:03.242Z,3.47
2022-09-06T18:46:31.527Z,3.70
2022-09-06T18:48:58.707Z,3.10
2022-09-06T18:51:26.025Z,3.33
2022-09-06T18:53:52.990Z,3.63
2022-09-06T18:56:20.604Z,3.80
2022-09-06T18:58:47.881Z,3.90
2022-09-06T19:01:17.330Z,3.45
2022-09-06T19:03:44.353Z,3.17
2022-09-06T19:06:13.789Z,3.65
2022-09-06T19:08:41.407Z,3.53
2022-09-06T19:11:14.244Z,3.80
2022-09-06T19:13:42.145Z,3.60
2022-09-06T19:16:10.723Z,3.30
2022-09-06T19:18:38.305Z,3.70
2022-09-06T19:21:08.118Z,3.40
2022-09-06T19:23:37.127Z,3.22
2022-09-06T19:26:07.798Z,4.05
2022-09-06T19:28:35.682Z,3.35
2022-09-06T19:31:13.591Z,2.95
2022-09-06T19:33:41.335Z,3.08
2022-09-06T19:36:11.913Z,2.97
2022-09-06T19:39:02.007Z,3.03
2022-09-06T19:41:28.278Z,2.72
2022-09-06T19:43:57.064Z,3.08
2022-09-06T19:46:27.986Z,3.42
2022-09-06T19:48:59.060Z,3.00
2022-09-06T19:51:25.921Z,3.20
2022-09-06T19:53:54.718Z,3.38
2022-09-06T19:56:27.438Z,3.10
2022-09-06T19:58:55.791Z,3.25
2022-09-06T20:01:23.771Z,3.08
2022-09-06T20:03:50.818Z,3.42
2022-09-06T20:06:17.584Z,3.20
2022-09-06T20:08:48.746Z,3.03
2022-09-06T20:11:15.523Z,3.00
2022-09-06T20:13:42.905Z,4.55
2022-09-06T20:16:10.802Z,3.63
2022-09-06T20:18:38.066Z,3.58
2022-09-06T20:21:05.813Z,3.55
2022-09-06T20:23:36.824Z,3.30
2022-09-06T20:26:08.997Z,3.53
2022-09-06T20:28:36.105Z,3.40
2022-09-06T20:31:09.348Z,5.13
2022-09-06T20:33:36.851Z,6.13
2022-09-06T20:36:08.913Z,5.00
2022-09-06T20:38:38.107Z,3.80
2022-09-06T20:41:06.174Z,5.30
2022-09-06T20:43:36.744Z,5.15
2022-09-06T20:46:08.990Z,3.97
2022-09-06T20:48:44.181Z,3.42
2022-09-06T20:51:22.744Z,4.10
2022-09-06T20:53:57.308Z,4.03
2022-09-06T20:56:27.005Z,3.88
2022-09-06T20:58:56.592Z,3.65
2022-09-06T21:01:26.175Z,3.85
2022-09-06T21:03:55.022Z,4.35
2022-09-06T21:06:22.683Z,3.85
2022-09-06T21:08:50.277Z,4.07
2022-09-06T21:11:17.371Z,3.42
2022-09-06T21:13:44.096Z,3.28
2022-09-06T21:16:11.268Z,3.90
2022-09-06T21:18:38.059Z,3.60
2022-09-06T21:21:06.898Z,3.55
2022-09-06T21:23:38.689Z,3.35
2022-09-06T21:26:07.927Z,3.78
2022-09-06T21:28:37.563Z,3.35
2022-09-06T21:31:09.958Z,3.58
2022-09-06T21:33:48.086Z,3.20
2022-09-06T21:36:20.955Z,3.67
2022-09-06T21:38:50.088Z,3.50
2022-09-06T21:41:18.285Z,3.80
2022-09-06T21:43:46.027Z,3.72
2022-09-06T21:46:15.433Z,3.55
2022-09-06T21:48:44.339Z,3.30
2022-09-06T21:51:14.251Z,3.85
2022-09-06T21:53:43.179Z,3.85
2022-09-06T21:56:10.140Z,3.97
2022-09-06T21:58:37.665Z,4.18
2022-09-06T22:01:05.457Z,3.75
2022-09-06T22:03:34.934Z,3.30
2022-09-06T22:06:12.547Z,3.50
2022-09-06T22:08:41.886Z,3.70
2022-09-06T22:11:11.199Z,3.80
2022-09-06T22:13:38.281Z,3.50
2022-09-06T22:16:08.067Z,3.95
2022-09-06T22:18:35.570Z,3.60
2022-09-06T22:21:10.965Z,4.20
2022-09-06T22:23:38.614Z,4.18
2022-09-06T22:26:08.618Z,4.00
2022-09-06T22:28:36.360Z,3.80
2022-09-06T22:31:03.746Z,3.42
2022-09-06T22:33:31.091Z,3.38
2022-09-06T22:36:00.482Z,3.67
2022-09-06T22:38:28.535Z,3.60
2022-09-06T22:40:56.603Z,4.47
2022-09-06T22:43:23.741Z,3.92
2022-09-06T22:45:52.087Z,3.60
2022-09-06T22:48:19.505Z,3.38
2022-09-06T22:50:46.712Z,3.97
2022-09-06T22:53:13.483Z,3.38
2022-09-06T22:55:40.320Z,3.50
2022-09-06T22:58:07.120Z,3.60
2022-09-06T23:00:36.328Z,3.58
2022-09-06T23:03:03.120Z,3.60
2022-09-06T23:05:31.654Z,3.58
2022-09-06T23:08:01.599Z,3.70
2022-09-06T23:10:29.858Z,3.40
2022-09-06T23:12:57.091Z,3.55
2022-09-06T23:15:23.807Z,3.72
2022-09-06T23:17:50.899Z,4.30
2022-09-06T23:20:19.464Z,3.85
2022-09-06T23:22:47.102Z,3.55
2022-09-06T23:25:13.972Z,3.50
2022-09-06T23:27:40.795Z,3.88
2022-09-06T23:30:08.317Z,3.90
2022-09-06T23:32:35.764Z,4.07
2022-09-06T23:35:02.550Z,4.15
2022-09-06T23:37:29.271Z,3.88
2022-09-06T23:39:56.001Z,4.30
2022-09-06T23:42:23.250Z,3.97
2022-09-06T23:44:54.486Z,3.85
2022-09-06T23:47:21.359Z,3.72
2022-09-06T23:49:50.901Z,3.72
2022-09-06T23:52:18.385Z,3.55
2022-09-06T23:54:45.162Z,4.30
2022-09-06T23:57:12.053Z,3.83
2022-09-06T23:59:38.764Z,3.83
